Time;durP1;ratioP1;P1;durP2;ratioP2;P2;SDS_P1;SDS_P2;PMS_P1;PMS_P2;Temp;Humidity;BMP_temperature;BMP_pressure;BME280_temperature;BME280_humidity;BME280_pressure;Samples;Min_cycle;Max_cycle;Signal;HPM_P1;HPM_P2
2022/02/19 10:11:52;;;;;;;11.40;10.60;;;15.40;59.00;;;;;;5148583;27;20578;-77
2022/02/19 10:14:23;;;;;;;11.43;10.83;;;16.30;58.10;;;;;;5148305;27;20462;-77
2022/02/19 10:17:17;;;;;;;12.53;11.43;;;16.80;56.70;;;;;;5148607;27;20440;-77
2022/02/19 10:19:47;;;;;;;11.77;11.03;;;17.10;55.90;;;;;;5148242;27;20988;-77
2022/02/19 10:22:16;;;;;;;11.87;11.17;;;16.80;55.70;;;;;;5148406;27;20552;-77
2022/02/19 10:24:45;;;;;;;11.33;10.70;;;16.40;55.00;;;;;;5148310;27;20448;-77
2022/02/19 10:27:13;;;;;;;11.63;10.90;;;16.40;55.00;;;;;;5148262;27;20962;-76
2022/02/19 10:29:53;;;;;;;11.70;11.03;;;16.10;54.60;;;;;;5148341;27;20479;-77
2022/02/19 10:32:20;;;;;;;11.60;11.00;;;15.90;55.10;;;;;;5148287;27;20447;-76
2022/02/19 10:34:59;;;;;;;11.67;10.93;;;16.30;55.30;;;;;;5148088;27;20447;-76
2022/02/19 10:37:28;;;;;;;11.43;10.63;;;15.80;54.80;;;;;;5148170;27;20451;-76
2022/02/19 10:39:57;;;;;;;11.30;10.40;;;15.60;55.20;;;;;;5148238;27;20450;-77
2022/02/19 10:42:33;;;;;;;10.90;10.30;;;15.40;55.60;;;;;;5148496;27;20455;-76
2022/02/19 10:45:08;;;;;;;11.67;10.97;;;15.70;55.50;;;;;;5147915;27;20927;-77
2022/02/19 10:47:35;;;;;;;11.60;10.80;;;16.10;54.70;;;;;;5147846;27;20478;-78
2022/02/19 10:50:08;;;;;;;11.10;10.47;;;15.20;55.70;;;;;;5147809;27;20544;-77
2022/02/19 10:52:35;;;;;;;9.83;9.27;;;14.50;56.70;;;;;;5147796;27;20790;-76
2022/02/19 10:55:07;;;;;;;10.40;9.70;;;15.30;56.30;;;;;;5147780;27;20447;-76
2022/02/19 10:57:39;;;;;;;10.87;10.17;;;15.70;55.30;;;;;;5147860;27;20450;-77
2022/02/19 11:00:10;;;;;;;10.80;10.30;;;15.90;53.20;;;;;;5147921;27;20435;-76
2022/02/19 11:02:38;;;;;;;10.30;9.80;;;16.00;53.20;;;;;;5147742;27;20537;-76
2022/02/19 11:05:07;;;;;;;10.93;10.23;;;16.40;52.70;;;;;;5147744;27;20448;-75
2022/02/19 11:07:36;;;;;;;10.40;9.90;;;15.70;53.10;;;;;;5147511;27;20475;-78
2022/02/19 11:10:03;;;;;;;11.33;10.43;;;14.20;54.60;;;;;;5147283;27;20523;-78
2022/02/19 11:12:31;;;;;;;10.93;10.30;;;13.90;56.40;;;;;;5135316;27;20563;-78
2022/02/19 11:14:59;;;;;;;10.10;9.60;;;13.70;56.80;;;;;;5133566;27;20455;-77
2022/02/19 11:17:28;;;;;;;10.53;9.77;;;14.20;56.60;;;;;;5133498;27;20441;-77
2022/02/19 11:19:59;;;;;;;11.30;10.40;;;14.70;54.60;;;;;;5133831;27;20501;-77
2022/02/19 11:22:28;;;;;;;11.23;10.67;;;15.20;54.70;;;;;;5133774;27;20995;-77
2022/02/19 11:24:56;;;;;;;11.13;10.43;;;15.30;54.50;;;;;;5133535;27;20445;-78
2022/02/19 11:27:24;;;;;;;11.07;10.57;;;16.60;54.00;;;;;;5133459;27;20451;-77
2022/02/19 11:29:55;;;;;;;12.43;11.53;;;16.90;51.30;;;;;;5133226;27;20488;-78
2022/02/19 11:32:25;;;;;;;11.60;11.07;;;17.60;51.20;;;;;;5133373;27;20445;-77
2022/02/19 11:34:52;;;;;;;12.00;11.20;;;17.20;50.40;;;;;;5132933;27;20461;-77
2022/02/19 11:37:20;;;;;;;10.90;10.30;;;16.70;50.60;;;;;;5132800;27;20459;-77
2022/02/19 11:40:04;;;;;;;11.50;10.80;;;16.00;50.80;;;;;;5133268;27;20440;-77
2022/02/19 11:42:40;;;;;;;11.13;10.40;;;16.20;51.40;;;;;;5132675;27;20452;-77
2022/02/19 11:45:22;;;;;;;10.93;10.23;;;16.00;51.50;;;;;;5133200;27;20440;-78
2022/02/19 11:47:51;;;;;;;10.80;10.20;;;16.00;51.80;;;;;;5132709;27;20448;-77
2022/02/19 11:50:21;;;;;;;11.47;10.40;;;16.30;51.30;;;;;;5132675;27;20491;-77
2022/02/19 11:53:21;;;;;;;13.00;12.10;;;15.90;49.50;;;;;;5132467;27;20456;-77
2022/02/19 11:55:48;;;;;;;11.43;10.83;;;16.00;49.50;;;;;;5132706;27;20947;-77
2022/02/19 11:58:18;;;;;;;11.07;10.47;;;16.20;48.50;;;;;;5132657;27;20654;-77
2022/02/19 12:00:50;;;;;;;11.87;10.90;;;16.40;49.00;;;;;;5132376;27;20441;-77
2022/02/19 12:03:21;;;;;;;11.50;10.70;;;17.20;48.00;;;;;;5132614;27;20460;-79
2022/02/19 12:06:18;;;;;;;12.13;11.27;;;17.50;50.00;;;;;;5132632;27;20954;-79
2022/02/19 12:09:05;;;;;;;11.50;10.80;;;18.30;50.20;;;;;;5132436;27;20467;-77
2022/02/19 12:11:32;;;;;;;10.83;10.33;;;18.90;47.90;;;;;;5131866;27;20484;-77
2022/02/19 12:14:00;;;;;;;12.40;11.17;;;18.90;47.70;;;;;;5132400;27;20449;-77
2022/02/19 12:16:47;;;;;;;12.47;11.33;;;19.10;46.80;;;;;;5132335;27;20449;-77
2022/02/19 12:19:15;;;;;;;10.60;9.93;;;18.70;47.10;;;;;;5132147;27;20448;-77
2022/02/19 12:21:43;;;;;;;12.37;11.43;;;18.70;47.00;;;;;;5132239;27;20452;-77
2022/02/19 12:24:11;;;;;;;9.50;9.20;;;18.10;47.20;;;;;;5131266;27;20457;-77
2022/02/19 12:27:13;;;;;;;10.77;10.17;;;16.20;48.80;;;;;;5132416;27;20841;-76
2022/02/19 12:29:41;;;;;;;11.93;10.87;;;15.50;50.50;;;;;;5132059;27;20807;-77
2022/02/19 12:32:09;;;;;;;10.13;9.63;;;16.30;50.60;;;;;;5132136;27;20536;-77
2022/02/19 12:34:38;;;;;;;11.77;11.07;;;17.40;47.90;;;;;;5131874;27;20448;-78
2022/02/19 12:37:09;;;;;;;11.20;10.50;;;17.90;46.80;;;;;;5131899;27;20440;-77
2022/02/19 12:39:43;;;;;;;10.93;10.30;;;18.40;45.30;;;;;;5131907;27;20449;-77
2022/02/19 12:42:16;;;;;;;11.20;10.40;;;17.30;45.20;;;;;;5132113;27;20484;-75
2022/02/19 12:44:42;;;;;;;10.50;10.00;;;15.90;46.80;;;;;;5131546;27;20459;-75
2022/02/19 12:47:10;;;;;;;10.93;10.27;;;14.80;48.50;;;;;;5131857;27;20452;-75
2022/02/19 12:49:38;;;;;;;10.67;9.90;;;13.50;50.30;;;;;;5131725;27;20446;-76
2022/02/19 12:52:06;;;;;;;10.17;9.53;;;13.90;51.30;;;;;;5131628;27;20501;-77
2022/02/19 12:54:34;;;;;;;9.70;9.10;;;13.90;51.00;;;;;;5131723;27;20971;-75
2022/02/19 12:57:01;;;;;;;9.90;9.40;;;14.30;50.80;;;;;;5131609;27;20452;-78
2022/02/19 12:59:30;;;;;;;10.90;10.20;;;13.60;50.80;;;;;;5131313;27;20452;-75
2022/02/19 13:02:00;;;;;;;10.70;10.20;;;14.00;51.00;;;;;;5131176;27;20546;-76
2022/02/19 13:04:34;;;;;;;10.00;9.47;;;14.00;49.90;;;;;;5131444;27;20858;-75
2022/02/19 13:07:04;;;;;;;10.90;10.30;;;14.30;50.40;;;;;;5131324;27;20448;-75
2022/02/19 13:09:31;;;;;;;10.43;9.83;;;14.90;49.40;;;;;;5131219;27;20526;-75
2022/02/19 13:12:00;;;;;;;10.37;9.80;;;14.80;49.30;;;;;;5131276;27;20845;-76
2022/02/19 13:14:28;;;;;;;10.20;9.80;;;15.60;48.80;;;;;;5131435;27;20452;-76
2022/02/19 13:17:00;;;;;;;10.90;10.20;;;15.80;48.50;;;;;;5131159;27;20448;-77
2022/02/19 13:19:27;;;;;;;10.23;9.57;;;15.70;47.00;;;;;;5131119;27;20471;-76
2022/02/19 13:22:07;;;;;;;9.87;9.40;;;15.80;48.00;;;;;;5131159;27;20444;-76
2022/02/19 13:24:36;;;;;;;10.37;9.80;;;15.80;47.50;;;;;;5130606;27;20772;-76
2022/02/19 13:27:10;;;;;;;10.17;9.60;;;15.30;48.50;;;;;;5130684;27;20445;-75
2022/02/19 13:29:37;;;;;;;10.93;10.20;;;15.40;49.60;;;;;;5130944;27;20440;-75
2022/02/19 13:32:05;;;;;;;11.23;10.60;;;15.70;48.70;;;;;;5130027;27;20477;-75
2022/02/19 13:34:33;;;;;;;10.47;10.07;;;15.80;48.60;;;;;;5130353;27;20487;-74
2022/02/19 13:37:00;;;;;;;10.03;9.50;;;15.20;49.40;;;;;;5130417;27;20448;-75
2022/02/19 13:39:37;;;;;;;10.67;10.13;;;14.50;49.70;;;;;;5130544;27;20476;-75
2022/02/19 13:42:05;;;;;;;9.40;9.00;;;13.30;50.20;;;;;;5130546;27;20445;-76
2022/02/19 13:44:31;;;;;;;10.10;9.70;;;12.30;51.00;;;;;;5130207;27;20440;-76
2022/02/19 13:46:58;;;;;;;16.53;9.73;;;11.70;52.50;;;;;;5130513;27;20448;-75
2022/02/19 13:49:35;;;;;;;9.00;8.50;;;11.30;53.40;;;;;;5130779;27;20461;-75
2022/02/19 13:52:02;;;;;;;9.30;8.60;;;11.10;53.80;;;;;;5130373;27;21043;-75
2022/02/19 13:54:40;;;;;;;9.40;8.87;;;10.90;54.10;;;;;;5130520;27;20518;-75
2022/02/19 13:57:20;;;;;;;8.70;8.30;;;10.70;54.80;;;;;;5130749;27;20486;-75
2022/02/19 14:00:09;;;;;;;9.30;8.80;;;10.70;55.30;;;;;;5130603;27;20455;-75
2022/02/19 14:02:36;;;;;;;9.40;8.90;;;10.70;55.30;;;;;;5130291;27;20854;-75
2022/02/19 14:05:05;;;;;;;9.70;9.20;;;10.70;55.50;;;;;;5130373;27;20456;-75
2022/02/19 14:07:49;;;;;;;9.33;8.80;;;10.80;55.70;;;;;;5130308;27;20445;-75
2022/02/19 14:10:17;;;;;;;9.37;8.77;;;10.60;55.20;;;;;;5129945;27;20593;-75
2022/02/19 14:12:44;;;;;;;10.00;9.40;;;10.40;56.20;;;;;;5130365;27;20456;-76
2022/02/19 14:15:11;;;;;;;8.50;8.13;;;10.40;56.90;;;;;;5130264;27;20452;-75
2022/02/19 14:17:40;;;;;;;9.43;8.87;;;10.40;56.50;;;;;;5130435;27;20448;-75
2022/02/19 14:20:10;;;;;;;8.87;8.57;;;10.50;56.80;;;;;;5130259;27;20455;-75
2022/02/19 14:22:42;;;;;;;8.50;8.00;;;10.60;56.80;;;;;;5130374;27;20443;-74
2022/02/19 14:25:18;;;;;;;9.00;8.47;;;10.60;56.70;;;;;;5130365;27;20455;-75
2022/02/19 14:27:53;;;;;;;9.73;8.97;;;10.60;57.00;;;;;;5130123;27;20996;-74
2022/02/19 14:30:21;;;;;;;9.53;8.90;;;10.70;56.60;;;;;;5130092;27;20446;-75
2022/02/19 14:32:49;;;;;;;10.00;9.37;;;10.70;56.20;;;;;;5129976;27;20468;-75
2022/02/19 14:35:16;;;;;;;8.40;7.97;;;10.70;55.90;;;;;;5129805;27;20441;-76
2022/02/19 14:37:42;;;;;;;8.70;8.30;;;10.70;55.90;;;;;;5129963;27;20813;-76
2022/02/19 14:40:10;;;;;;;9.07;8.50;;;10.70;55.50;;;;;;5130233;27;20931;-75
2022/02/19 14:42:38;;;;;;;8.40;8.00;;;10.60;54.40;;;;;;5130394;27;20445;-75
2022/02/19 14:45:06;;;;;;;8.90;8.50;;;10.50;54.10;;;;;;5130202;27;20444;-76
2022/02/19 14:47:32;;;;;;;9.03;8.53;;;10.40;54.80;;;;;;5132550;27;20459;-75
2022/02/19 14:49:59;;;;;;;9.20;8.60;;;10.50;55.40;;;;;;5133899;27;20827;-75
2022/02/19 14:52:26;;;;;;;9.70;9.20;;;10.50;55.90;;;;;;5134074;27;20488;-75
2022/02/19 14:54:53;;;;;;;8.60;8.23;;;10.40;55.90;;;;;;5134134;27;20448;-75
2022/02/19 14:57:20;;;;;;;8.80;8.40;;;10.50;56.70;;;;;;5133896;27;20531;-75
2022/02/19 14:59:48;;;;;;;8.50;8.00;;;10.40;56.00;;;;;;5133719;27;20446;-75
2022/02/19 15:02:15;;;;;;;8.83;8.33;;;10.40;56.20;;;;;;5133451;27;21022;-75
2022/02/19 15:04:42;;;;;;;8.77;8.43;;;10.30;55.90;;;;;;5133812;27;20450;-76
2022/02/19 15:07:09;;;;;;;8.70;8.20;;;10.20;56.40;;;;;;5133884;27;20941;-76
2022/02/19 15:09:36;;;;;;;9.07;8.57;;;10.20;56.10;;;;;;5133515;27;20451;-75
2022/02/19 15:12:08;;;;;;;9.37;8.80;;;10.20;56.10;;;;;;5133501;27;20518;-75
2022/02/19 15:14:36;;;;;;;10.23;9.80;;;10.20;56.40;;;;;;5133404;27;20445;-75
2022/02/19 15:17:04;;;;;;;9.13;8.60;;;10.20;56.20;;;;;;5133431;27;20454;-75
2022/02/19 15:19:31;;;;;;;8.87;8.40;;;10.10;55.80;;;;;;5133432;27;20448;-75
2022/02/19 15:21:58;;;;;;;8.27;7.67;;;10.00;56.00;;;;;;5133219;27;20449;-75
2022/02/19 15:24:24;;;;;;;8.80;8.37;;;10.00;56.10;;;;;;5133587;27;20474;-75
2022/02/19 15:26:51;;;;;;;9.27;8.60;;;10.00;56.50;;;;;;5133460;27;20440;-75
2022/02/19 15:29:18;;;;;;;9.17;8.37;;;10.00;57.20;;;;;;5133296;27;20448;-76
2022/02/19 15:31:45;;;;;;;10.17;9.30;;;9.90;58.60;;;;;;5133032;27;20484;-75
2022/02/19 15:34:13;;;;;;;8.77;8.37;;;9.90;58.20;;;;;;5133157;27;20507;-75
2022/02/19 15:36:41;;;;;;;8.73;8.40;;;9.90;58.20;;;;;;5133359;27;20794;-76
2022/02/19 15:39:08;;;;;;;8.60;8.20;;;9.80;57.70;;;;;;5133385;27;20460;-76
2022/02/19 15:41:34;;;;;;;8.10;7.70;;;9.80;58.60;;;;;;5133159;27;20452;-75
2022/02/19 15:44:01;;;;;;;8.27;7.67;;;9.70;58.80;;;;;;5132827;27;20456;-75
2022/02/19 15:46:28;;;;;;;9.60;9.10;;;9.70;59.00;;;;;;5132842;27;20931;-75
2022/02/19 15:48:55;;;;;;;9.93;9.33;;;9.70;59.30;;;;;;5132774;27;20536;-75
2022/02/19 15:51:23;;;;;;;9.30;8.80;;;9.70;59.30;;;;;;5132979;27;20480;-75
2022/02/19 15:53:50;;;;;;;9.40;9.00;;;9.60;59.60;;;;;;5132682;27;20818;-75
2022/02/19 15:56:17;;;;;;;9.17;8.70;;;9.60;59.40;;;;;;5132599;27;20448;-76
2022/02/19 15:58:44;;;;;;;8.70;8.30;;;9.60;60.00;;;;;;5132595;27;20448;-76
2022/02/19 16:01:10;;;;;;;11.13;10.20;;;9.50;60.30;;;;;;5132686;27;20440;-76
2022/02/19 16:03:37;;;;;;;8.97;8.37;;;9.40;60.80;;;;;;5132900;27;20444;-75
2022/02/19 16:06:04;;;;;;;8.40;8.00;;;9.30;60.70;;;;;;5132581;27;20449;-76
2022/02/19 16:08:32;;;;;;;8.47;8.07;;;9.30;61.20;;;;;;5132472;27;20448;-75
2022/02/19 16:10:58;;;;;;;8.20;7.80;;;9.20;60.80;;;;;;5132235;27;20484;-75
2022/02/19 16:13:25;;;;;;;8.27;7.70;;;9.10;61.50;;;;;;5132592;27;20447;-75
2022/02/19 16:15:52;;;;;;;9.50;8.80;;;9.00;62.20;;;;;;5132703;27;20452;-75
2022/02/19 16:18:19;;;;;;;9.33;8.80;;;9.00;62.60;;;;;;5132386;27;20441;-75
2022/02/19 16:20:45;;;;;;;9.83;9.13;;;8.90;63.20;;;;;;5132470;27;20596;-75
2022/02/19 16:23:12;;;;;;;9.83;9.23;;;8.80;63.80;;;;;;5132244;27;20440;-75
2022/02/19 16:25:40;;;;;;;9.90;9.20;;;8.80;63.50;;;;;;5132410;27;20456;-75
2022/02/19 16:28:07;;;;;;;9.80;9.30;;;8.80;63.00;;;;;;5132737;27;20440;-76
2022/02/19 16:30:34;;;;;;;9.27;8.73;;;8.80;63.40;;;;;;5132341;27;20452;-75
2022/02/19 16:33:01;;;;;;;10.03;9.13;;;8.70;63.80;;;;;;5131782;27;21026;-75
2022/02/19 16:35:28;;;;;;;9.60;9.00;;;8.70;64.30;;;;;;5131885;27;20484;-75
2022/02/19 16:37:56;;;;;;;9.53;9.03;;;8.60;64.40;;;;;;5132244;27;20444;-75
2022/02/19 16:40:22;;;;;;;9.97;9.20;;;8.50;64.80;;;;;;5132160;27;20967;-74
2022/02/19 16:42:51;;;;;;;9.47;8.80;;;8.30;64.90;;;;;;5131694;27;20452;-75
2022/02/19 16:45:18;;;;;;;10.83;9.47;;;8.20;65.10;;;;;;5131771;27;20493;-76
2022/02/19 16:47:45;;;;;;;8.80;8.40;;;8.10;66.20;;;;;;5131552;27;20522;-75
2022/02/19 16:50:14;;;;;;;8.93;8.50;;;8.00;66.80;;;;;;5131741;27;20448;-75
2022/02/19 16:52:42;;;;;;;9.10;8.40;;;7.90;67.10;;;;;;5131748;27;20480;-75
2022/02/19 16:55:10;;;;;;;9.47;8.70;;;7.90;68.00;;;;;;5131968;27;20459;-76
2022/02/19 16:57:37;;;;;;;9.10;8.60;;;7.80;68.50;;;;;;5131778;27;20455;-75
2022/02/19 17:00:08;;;;;;;9.10;8.60;;;7.70;68.30;;;;;;5131557;27;20456;-76
2022/02/19 17:02:35;;;;;;;8.60;8.00;;;7.50;68.70;;;;;;5131235;27;20567;-74
2022/02/19 17:05:01;;;;;;;8.60;8.10;;;7.50;69.30;;;;;;5131361;27;20448;-76
2022/02/19 17:07:28;;;;;;;8.90;8.40;;;7.50;69.10;;;;;;5131436;27;20447;-76
2022/02/19 17:09:55;;;;;;;8.40;7.90;;;7.50;69.30;;;;;;5130767;27;20478;-76
2022/02/19 17:12:25;;;;;;;8.40;8.00;;;7.50;69.30;;;;;;5131309;27;20491;-76
2022/02/19 17:14:52;;;;;;;8.60;8.03;;;7.40;70.20;;;;;;5131580;27;20441;-76
2022/02/19 17:17:20;;;;;;;8.53;8.13;;;7.30;70.80;;;;;;5131049;27;20954;-75
2022/02/19 17:19:47;;;;;;;8.33;7.77;;;7.30;70.70;;;;;;5131329;27;20451;-77
2022/02/19 17:22:14;;;;;;;8.10;7.67;;;7.20;70.60;;;;;;5131150;27;20454;-76
2022/02/19 17:24:41;;;;;;;8.30;7.80;;;7.10;71.00;;;;;;5131225;27;20448;-75
2022/02/19 17:27:07;;;;;;;8.10;7.70;;;7.00;72.40;;;;;;5131424;27;20954;-74
2022/02/19 17:29:35;;;;;;;9.60;8.70;;;6.90;73.20;;;;;;5131068;27;20450;-74
2022/02/19 17:32:02;;;;;;;8.60;7.90;;;6.90;74.20;;;;;;5130834;27;20538;-75
2022/02/19 17:34:30;;;;;;;8.40;7.90;;;6.90;75.60;;;;;;5130881;27;20455;-76
2022/02/19 17:36:56;;;;;;;9.47;8.77;;;6.80;76.90;;;;;;5131077;27;20450;-75
2022/02/19 17:39:23;;;;;;;9.57;8.80;;;6.70;78.00;;;;;;5131362;27;20442;-75
2022/02/19 17:41:50;;;;;;;9.40;8.80;;;6.70;81.00;;;;;;5131135;27;20442;-75
2022/02/19 17:44:18;;;;;;;9.97;9.33;;;6.60;81.50;;;;;;5130706;27;20468;-75
2022/02/19 17:46:45;;;;;;;9.30;8.60;;;6.60;81.70;;;;;;5130617;27;20504;-76
2022/02/19 17:49:12;;;;;;;9.40;8.90;;;6.50;83.10;;;;;;5130959;27;20454;-76
2022/02/19 17:51:40;;;;;;;9.80;9.17;;;6.50;83.30;;;;;;5130851;27;20452;-76
2022/02/19 17:54:06;;;;;;;9.00;8.60;;;6.50;83.90;;;;;;5130945;27;20446;-76
2022/02/19 17:56:34;;;;;;;9.07;8.30;;;6.50;85.10;;;;;;5130609;27;20459;-76
